Time;durP1;ratioP1;P1;durP2;ratioP2;P2;SDS_P1;SDS_P2;PMS_P1;PMS_P2;Temp;Humidity;BMP_temperature;BMP_pressure;BME280_temperature;BME280_humidity;BME280_pressure;Samples;Min_cycle;Max_cycle;Signal;HPM_P1;HPM_P2
2023/09/29 00:00:18;;;;;;;7.10;3.50;;;18.00;99.90;;;;;;4956956;28;20039;-81
2023/09/29 00:02:45;;;;;;;5.63;3.55;;;18.10;99.90;;;;;;4974758;28;20703;-80
2023/09/29 00:05:11;;;;;;;5.30;3.58;;;18.10;99.90;;;;;;4974465;28;20042;-80
2023/09/29 00:07:40;;;;;;;5.13;2.97;;;18.10;99.90;;;;;;4977519;28;20181;-80
2023/09/29 00:10:09;;;;;;;6.05;4.22;;;18.20;99.90;;;;;;4969896;28;20050;-79
2023/09/29 00:12:36;;;;;;;7.55;2.92;;;18.10;99.90;;;;;;4977705;28;20093;-80
2023/09/29 00:15:03;;;;;;;8.07;3.55;;;18.20;99.90;;;;;;4969947;28;20034;-80
2023/09/29 00:17:29;;;;;;;6.70;3.25;;;18.20;99.90;;;;;;4973260;28;20076;-80
2023/09/29 00:19:55;;;;;;;5.43;3.08;;;18.20;99.90;;;;;;4972442;28;20090;-80
2023/09/29 00:22:20;;;;;;;7.32;2.72;;;18.20;99.90;;;;;;4973163;28;20056;-80
2023/09/29 00:24:46;;;;;;;5.57;3.25;;;18.30;99.90;;;;;;4968449;28;20110;-81
2023/09/29 00:27:11;;;;;;;6.22;3.38;;;18.30;99.90;;;;;;4970158;28;20030;-80
2023/09/29 00:29:38;;;;;;;7.18;3.70;;;18.30;99.90;;;;;;4952474;28;20818;-80
2023/09/29 00:32:03;;;;;;;6.60;3.13;;;18.30;99.90;;;;;;4974231;28;20606;-80
2023/09/29 00:34:29;;;;;;;6.07;3.60;;;18.20;99.90;;;;;;4957009;28;20113;-80
2023/09/29 00:36:55;;;;;;;8.02;3.08;;;18.20;99.90;;;;;;4971771;28;20479;-81
2023/09/29 00:39:20;;;;;;;5.32;3.55;;;18.20;99.90;;;;;;4973961;28;20057;-80
2023/09/29 00:41:46;;;;;;;4.97;3.13;;;18.30;99.90;;;;;;4970193;28;20037;-81
2023/09/29 00:44:13;;;;;;;4.40;3.30;;;18.10;99.90;;;;;;4968677;28;20034;-80
2023/09/29 00:46:39;;;;;;;5.68;3.63;;;18.20;99.90;;;;;;4971840;28;20026;-80
2023/09/29 00:49:05;;;;;;;4.43;2.80;;;18.20;99.90;;;;;;4971787;28;20050;-80
2023/09/29 00:51:31;;;;;;;6.88;3.30;;;18.20;99.90;;;;;;4972132;28;20069;-80
2023/09/29 00:53:57;;;;;;;5.53;3.08;;;18.20;99.90;;;;;;4969456;28;20031;-80
2023/09/29 00:56:22;;;;;;;6.63;3.35;;;18.20;99.90;;;;;;4972468;28;20027;-81
2023/09/29 00:58:48;;;;;;;5.60;3.00;;;18.30;99.90;;;;;;4967310;28;20031;-80
2023/09/29 01:01:14;;;;;;;5.03;3.55;;;18.20;99.90;;;;;;4970675;28;20178;-80
2023/09/29 01:03:39;;;;;;;6.15;3.08;;;18.30;99.90;;;;;;4968196;28;20035;-80
2023/09/29 01:06:08;;;;;;;5.18;3.05;;;18.30;99.90;;;;;;4954433;28;20030;-80
2023/09/29 01:08:33;;;;;;;5.57;3.40;;;18.30;99.90;;;;;;4952277;28;20723;-80
2023/09/29 01:10:59;;;;;;;6.63;3.13;;;18.30;99.90;;;;;;4981273;28;20093;-81
2023/09/29 01:13:25;;;;;;;4.18;2.72;;;18.30;99.90;;;;;;4970713;28;20182;-80
2023/09/29 01:15:50;;;;;;;5.25;2.95;;;18.30;99.90;;;;;;4969076;28;20533;-81
2023/09/29 01:18:16;;;;;;;6.03;3.00;;;18.30;99.90;;;;;;4972713;28;20110;-80
2023/09/29 01:20:42;;;;;;;7.38;3.10;;;18.40;99.90;;;;;;4952831;28;20031;-80
2023/09/29 01:23:08;;;;;;;4.35;3.00;;;18.40;99.90;;;;;;4970329;28;20033;-81
2023/09/29 01:25:34;;;;;;;4.38;2.33;;;18.40;99.90;;;;;;4966983;28;20403;-81
2023/09/29 01:28:01;;;;;;;10.95;3.92;;;18.40;99.90;;;;;;4978396;28;20514;-81
2023/09/29 01:30:27;;;;;;;10.05;3.58;;;18.30;99.90;;;;;;4968561;28;20042;-80
2023/09/29 01:32:53;;;;;;;5.88;2.83;;;18.40;99.90;;;;;;4954089;28;20471;-80
2023/09/29 01:35:23;;;;;;;4.35;2.83;;;18.30;99.90;;;;;;4971752;28;20094;-81
2023/09/29 01:37:49;;;;;;;5.20;3.03;;;18.40;99.90;;;;;;4968608;28;20354;-81
2023/09/29 01:40:15;;;;;;;5.25;2.90;;;18.30;99.90;;;;;;4968983;28;20062;-80
2023/09/29 01:42:43;;;;;;;3.28;2.28;;;18.40;99.90;;;;;;4970624;28;20042;-80
2023/09/29 01:45:11;;;;;;;3.22;2.20;;;18.40;99.90;;;;;;4973891;28;20041;-80
2023/09/29 01:47:40;;;;;;;4.13;2.80;;;18.40;99.90;;;;;;4959812;28;21273;-80
2023/09/29 01:50:07;;;;;;;4.22;2.75;;;18.40;99.90;;;;;;4972280;28;20458;-81
2023/09/29 01:52:33;;;;;;;4.85;2.53;;;18.40;99.90;;;;;;4973505;28;20483;-81
2023/09/29 01:54:58;;;;;;;3.85;3.13;;;18.40;99.90;;;;;;4971520;28;20031;-81
2023/09/29 01:57:24;;;;;;;5.13;2.65;;;18.40;99.90;;;;;;4972656;28;20034;-81
2023/09/29 01:59:49;;;;;;;4.60;2.65;;;18.40;99.90;;;;;;4954134;28;20446;-81
2023/09/29 02:02:15;;;;;;;5.22;3.00;;;18.40;99.90;;;;;;4969864;28;20042;-81
2023/09/29 02:04:41;;;;;;;4.70;2.85;;;18.40;99.90;;;;;;4972821;28;20046;-81
2023/09/29 02:07:07;;;;;;;3.35;2.60;;;18.40;99.90;;;;;;4969955;28;20499;-81
2023/09/29 02:09:33;;;;;;;5.93;2.90;;;18.40;99.90;;;;;;4967309;28;20533;-81
2023/09/29 02:11:58;;;;;;;3.10;2.58;;;18.30;99.90;;;;;;4976917;28;20037;-81
2023/09/29 02:14:24;;;;;;;4.45;3.10;;;18.30;99.90;;;;;;4971429;28;20034;-81
2023/09/29 02:16:50;;;;;;;5.78;3.20;;;18.30;99.90;;;;;;4975536;28;20117;-81
2023/09/29 02:19:16;;;;;;;4.10;2.75;;;18.30;99.90;;;;;;4956853;28;20062;-80
2023/09/29 02:21:43;;;;;;;6.35;3.15;;;18.30;99.90;;;;;;4969652;28;20062;-81
2023/09/29 02:24:09;;;;;;;5.63;2.83;;;18.30;99.90;;;;;;4957054;28;20973;-81
2023/09/29 02:26:34;;;;;;;4.63;2.70;;;18.30;99.90;;;;;;4955359;28;20026;-81
2023/09/29 02:29:01;;;;;;;4.50;2.50;;;18.30;99.90;;;;;;4972885;28;20499;-81
2023/09/29 02:31:26;;;;;;;7.88;3.22;;;18.30;99.90;;;;;;4974154;28;20103;-81
2023/09/29 02:33:53;;;;;;;4.03;2.42;;;18.30;99.90;;;;;;4971248;28;20446;-82
2023/09/29 02:36:19;;;;;;;4.25;2.50;;;18.30;99.90;;;;;;4969641;28;20396;-81
2023/09/29 02:38:45;;;;;;;3.10;2.47;;;18.30;99.90;;;;;;4972591;28;20126;-81
2023/09/29 02:41:10;;;;;;;3.78;2.42;;;18.30;99.90;;;;;;4972056;28;20126;-81
2023/09/29 02:43:36;;;;;;;3.10;2.10;;;18.30;99.90;;;;;;4971638;28;20031;-78
2023/09/29 02:46:02;;;;;;;3.83;2.10;;;18.20;99.90;;;;;;4972690;28;20480;-78
2023/09/29 02:48:27;;;;;;;4.20;2.13;;;18.30;99.90;;;;;;4973716;28;20038;-81
2023/09/29 02:50:53;;;;;;;4.15;2.42;;;18.20;99.90;;;;;;4959052;28;20026;-79
2023/09/29 02:53:18;;;;;;;3.28;2.33;;;18.20;99.90;;;;;;4976260;28;20031;-81
2023/09/29 02:55:45;;;;;;;4.25;2.30;;;18.20;99.90;;;;;;4972232;28;20056;-79
2023/09/29 02:58:11;;;;;;;3.20;2.22;;;18.20;99.90;;;;;;4974389;28;20376;-80
2023/09/29 03:00:37;;;;;;;3.85;2.20;;;18.20;99.90;;;;;;4976718;28;20030;-80
2023/09/29 03:03:03;;;;;;;2.65;2.35;;;18.10;99.90;;;;;;4976992;28;20042;-80
2023/09/29 03:05:29;;;;;;;5.85;2.67;;;18.10;99.90;;;;;;4973004;28;20578;-80
2023/09/29 03:07:55;;;;;;;5.55;2.85;;;18.10;99.90;;;;;;4978948;28;20038;-80
2023/09/29 03:10:21;;;;;;;6.82;2.97;;;18.00;99.90;;;;;;4990282;28;20107;-80
2023/09/29 03:12:46;;;;;;;5.22;2.15;;;18.00;99.90;;;;;;4989215;28;20422;-80
2023/09/29 03:15:15;;;;;;;4.35;2.38;;;18.10;99.90;;;;;;4972741;28;20030;-80
2023/09/29 03:17:44;;;;;;;4.65;2.33;;;18.10;99.90;;;;;;4971667;28;20054;-80
2023/09/29 03:20:14;;;;;;;3.58;2.45;;;18.10;99.90;;;;;;4973546;28;20030;-80
2023/09/29 03:22:40;;;;;;;6.15;2.47;;;18.10;99.90;;;;;;4977602;28;20045;-80
2023/09/29 03:25:06;;;;;;;7.05;2.72;;;18.10;99.90;;;;;;4973793;28;20496;-80
2023/09/29 03:27:32;;;;;;;4.70;2.58;;;18.20;99.90;;;;;;4958568;28;20035;-80
2023/09/29 03:29:59;;;;;;;4.47;2.50;;;18.10;99.90;;;;;;4957653;28;20398;-80
2023/09/29 03:32:28;;;;;;;3.55;2.05;;;18.00;99.90;;;;;;4971390;28;20503;-80
2023/09/29 03:34:54;;;;;;;4.28;2.67;;;18.10;99.90;;;;;;4971189;28;20543;-80
2023/09/29 03:37:19;;;;;;;5.45;2.53;;;18.10;99.90;;;;;;4992711;28;20039;-80
2023/09/29 03:39:47;;;;;;;3.25;2.50;;;18.10;99.90;;;;;;4977240;28;20023;-80
2023/09/29 03:42:13;;;;;;;5.20;2.65;;;18.10;99.90;;;;;;4953576;28;20039;-80
2023/09/29 03:44:39;;;;;;;3.83;2.50;;;18.10;99.90;;;;;;4953333;28;20106;-80
2023/09/29 03:47:05;;;;;;;4.85;2.40;;;18.10;99.90;;;;;;4976894;28;20479;-80
2023/09/29 03:49:31;;;;;;;3.63;2.60;;;18.10;99.90;;;;;;4957132;28;20094;-80
2023/09/29 03:51:57;;;;;;;9.25;3.15;;;18.10;99.90;;;;;;4971183;28;20039;-79
2023/09/29 03:54:23;;;;;;;4.68;2.42;;;18.10;99.90;;;;;;4989963;28;20406;-79
2023/09/29 03:56:51;;;;;;;5.53;2.78;;;18.10;99.90;;;;;;4978358;28;20037;-79
2023/09/29 03:59:17;;;;;;;3.60;2.72;;;18.10;99.90;;;;;;4972598;28;20051;-79
2023/09/29 04:01:44;;;;;;;5.88;2.60;;;18.10;99.90;;;;;;4973789;28;20039;-79
2023/09/29 04:04:10;;;;;;;7.50;2.45;;;18.10;99.90;;;;;;4975371;28;20023;-79
2023/09/29 04:06:36;;;;;;;4.45;2.63;;;18.20;99.90;;;;;;4975723;28;20105;-79
2023/09/29 04:09:03;;;;;;;6.28;2.45;;;18.10;99.90;;;;;;4973774;28;20079;-79
2023/09/29 04:11:28;;;;;;;4.85;2.50;;;18.20;99.90;;;;;;4972879;28;20483;-79
2023/09/29 04:13:54;;;;;;;5.47;2.97;;;18.10;99.90;;;;;;4973337;28;20122;-79
2023/09/29 04:16:20;;;;;;;4.35;2.67;;;18.10;99.90;;;;;;4973619;28;20022;-80
2023/09/29 04:18:45;;;;;;;5.63;2.38;;;18.10;99.90;;;;;;4987395;28;20050;-80
2023/09/29 04:21:15;;;;;;;4.53;2.50;;;18.10;99.90;;;;;;4971552;28;20386;-80
2023/09/29 04:23:43;;;;;;;4.38;2.28;;;18.10;99.90;;;;;;4972310;28;20158;-80
2023/09/29 04:26:16;;;;;;;4.40;2.28;;;18.10;99.90;;;;;;4970975;28;20066;-78
2023/09/29 04:28:41;;;;;;;5.05;2.97;;;18.10;99.90;;;;;;4971720;28;20526;-78
2023/09/29 04:31:07;;;;;;;4.60;2.70;;;18.20;99.90;;;;;;4970507;28;20065;-80
2023/09/29 04:33:33;;;;;;;9.27;2.92;;;18.20;99.90;;;;;;4951265;28;20751;-79
2023/09/29 04:35:58;;;;;;;6.15;3.00;;;18.20;99.90;;;;;;4970983;28;20139;-79
2023/09/29 04:38:24;;;;;;;6.95;2.22;;;18.10;99.90;;;;;;4969868;28;20038;-79
2023/09/29 04:40:49;;;;;;;5.95;2.65;;;18.10;99.90;;;;;;4971228;28;20031;-79
2023/09/29 04:43:15;;;;;;;5.30;2.80;;;18.10;99.90;;;;;;4971420;28;20027;-78
2023/09/29 04:45:40;;;;;;;3.42;2.60;;;18.10;99.90;;;;;;4971015;28;20621;-79
2023/09/29 04:48:07;;;;;;;4.82;2.67;;;18.00;99.90;;;;;;4954148;28;20034;-79
2023/09/29 04:50:34;;;;;;;6.38;3.10;;;18.00;99.90;;;;;;4972863;28;20038;-79
2023/09/29 04:52:59;;;;;;;3.78;2.80;;;18.00;99.90;;;;;;4970522;28;20038;-79
2023/09/29 04:55:27;;;;;;;5.10;2.50;;;18.00;99.90;;;;;;4971036;28;20027;-78
2023/09/29 04:57:54;;;;;;;5.20;2.47;;;18.00;99.90;;;;;;4953196;28;20045;-79
2023/09/29 05:00:20;;;;;;;4.40;2.83;;;17.90;99.90;;;;;;4968001;28;20097;-78
2023/09/29 05:02:46;;;;;;;3.83;2.70;;;17.90;99.90;;;;;;4972681;28;20039;-79
2023/09/29 05:05:12;;;;;;;2.65;2.30;;;17.90;99.90;;;;;;4971700;28;20089;-79
2023/09/29 05:07:37;;;;;;;5.40;2.47;;;17.90;99.90;;;;;;4970537;28;20046;-78
2023/09/29 05:10:04;;;;;;;7.85;3.28;;;17.90;99.90;;;;;;4972736;28;20170;-79
2023/09/29 05:12:30;;;;;;;5.30;2.20;;;17.90;99.90;;;;;;4956317;28;20050;-79
2023/09/29 05:14:56;;;;;;;3.35;2.53;;;17.90;99.90;;;;;;4968760;28;20039;-79
2023/09/29 05:17:21;;;;;;;3.72;2.63;;;17.80;99.90;;;;;;4968223;28;20034;-79
2023/09/29 05:19:47;;;;;;;5.88;2.83;;;17.80;99.90;;;;;;4970417;28;20027;-78
2023/09/29 05:22:12;;;;;;;3.28;2.35;;;17.80;99.90;;;;;;4954017;28;20043;-79
2023/09/29 05:24:38;;;;;;;2.50;2.30;;;17.80;99.90;;;;;;4971160;28;20056;-80
2023/09/29 05:27:04;;;;;;;6.35;2.60;;;17.80;99.90;;;;;;4955206;28;20514;-79
2023/09/29 05:29:29;;;;;;;7.07;2.47;;;17.80;99.90;;;;;;4969391;28;20057;-80
2023/09/29 05:31:55;;;;;;;7.97;2.55;;;17.80;99.90;;;;;;4969178;28;20045;-79
2023/09/29 05:34:20;;;;;;;6.72;2.53;;;17.80;99.90;;;;;;4971371;28;20034;-79
2023/09/29 05:36:46;;;;;;;4.20;2.60;;;17.80;99.90;;;;;;4984605;28;20035;-79
2023/09/29 05:39:12;;;;;;;3.10;2.30;;;17.70;99.90;;;;;;4969921;28;20031;-79
2023/09/29 05:41:38;;;;;;;5.85;2.40;;;17.80;99.90;;;;;;4968932;28;20058;-80
2023/09/29 05:44:03;;;;;;;4.72;2.72;;;17.80;99.90;;;;;;4972883;28;20169;-79
2023/09/29 05:46:29;;;;;;;3.55;2.25;;;17.80;99.90;;;;;;4972544;28;20039;-80
2023/09/29 05:48:55;;;;;;;5.22;3.05;;;17.70;99.90;;;;;;4951681;28;20023;-80
2023/09/29 05:51:21;;;;;;;4.10;2.65;;;17.80;99.90;;;;;;4969808;28;20023;-81
2023/09/29 05:53:46;;;;;;;3.03;2.33;;;17.80;99.90;;;;;;4971839;28;20065;-81
2023/09/29 05:56:13;;;;;;;3.85;2.42;;;17.90;99.90;;;;;;4971492;28;20030;-80
2023/09/29 05:58:39;;;;;;;2.60;1.95;;;17.90;99.90;;;;;;4970047;28;20061;-80
2023/09/29 06:01:12;;;;;;;2.63;2.42;;;17.90;99.90;;;;;;4988463;28;20122;-80
2023/09/29 06:03:38;;;;;;;3.65;2.35;;;18.00;99.90;;;;;;4949840;28;20030;-81
2023/09/29 06:06:04;;;;;;;5.18;2.58;;;18.00;99.90;;;;;;4971711;28;20463;-80
2023/09/29 06:08:30;;;;;;;3.30;2.83;;;18.00;99.90;;;;;;4970838;28;20049;-80
2023/09/29 06:10:56;;;;;;;4.88;2.65;;;18.10;99.90;;;;;;4968592;28;20027;-80
2023/09/29 06:13:22;;;;;;;6.70;2.55;;;18.10;99.90;;;;;;4968576;28;20042;-81
2023/09/29 06:15:48;;;;;;;7.07;3.00;;;18.10;99.90;;;;;;4958235;28;20034;-81
2023/09/29 06:18:15;;;;;;;3.58;2.40;;;18.10;99.90;;;;;;4972153;28;20033;-81
2023/09/29 06:20:40;;;;;;;7.45;2.55;;;18.20;99.90;;;;;;4953909;28;20039;-80
2023/09/29 06:23:09;;;;;;;4.93;2.53;;;18.20;99.90;;;;;;4959593;28;20236;-81
2023/09/29 06:25:35;;;;;;;3.38;2.42;;;18.20;99.90;;;;;;4969899;28;20669;-80
2023/09/29 06:28:00;;;;;;;3.13;2.22;;;18.20;99.90;;;;;;4951876;28;20038;-81
2023/09/29 06:30:26;;;;;;;5.10;2.55;;;18.20;99.90;;;;;;4947965;28;20038;-80
2023/09/29 06:32:51;;;;;;;6.25;2.25;;;18.20;99.90;;;;;;4962577;28;20030;-81
2023/09/29 06:35:17;;;;;;;2.35;2.05;;;18.30;99.90;;;;;;4966447;28;20360;-80
2023/09/29 06:37:43;;;;;;;2.85;2.35;;;18.20;99.90;;;;;;4966717;28;20710;-80
2023/09/29 06:40:12;;;;;;;4.47;2.35;;;18.20;99.90;;;;;;4973667;28;20042;-81
2023/09/29 06:42:38;;;;;;;4.43;2.33;;;18.30;99.90;;;;;;4973696;28;20722;-81
2023/09/29 06:45:06;;;;;;;2.83;2.33;;;18.30;99.90;;;;;;4956707;28;20059;-81
2023/09/29 06:47:31;;;;;;;6.13;2.15;;;18.40;99.90;;;;;;4970462;28;20041;-81
2023/09/29 06:49:57;;;;;;;4.75;2.30;;;18.50;99.90;;;;;;4970758;28;20034;-81
2023/09/29 06:52:24;;;;;;;3.97;2.40;;;18.50;99.90;;;;;;4974994;28;20443;-80
2023/09/29 06:54:49;;;;;;;3.70;2.47;;;18.60;99.90;;;;;;4967406;28;20063;-80
2023/09/29 06:57:16;;;;;;;3.70;2.20;;;18.60;99.90;;;;;;4969509;28;20081;-81
2023/09/29 06:59:41;;;;;;;4.93;2.38;;;18.70;99.90;;;;;;4968810;28;20487;-80
2023/09/29 07:02:07;;;;;;;3.88;2.47;;;18.80;99.90;;;;;;4967439;28;20058;-80
2023/09/29 07:04:33;;;;;;;5.18;2.55;;;18.80;99.90;;;;;;4975284;28;20034;-81
2023/09/29 07:06:58;;;;;;;4.05;2.53;;;18.90;99.90;;;;;;4967046;28;20133;-82
2023/09/29 07:09:24;;;;;;;3.35;2.28;;;19.00;99.90;;;;;;4967904;28;20304;-81
2023/09/29 07:11:50;;;;;;;5.82;2.38;;;18.90;99.90;;;;;;4969645;28;20041;-80
2023/09/29 07:14:16;;;;;;;5.53;3.17;;;19.00;99.90;;;;;;4967698;28;20062;-80
2023/09/29 07:16:42;;;;;;;4.65;3.03;;;19.10;99.90;;;;;;4968578;28;20035;-81
2023/09/29 07:19:10;;;;;;;5.18;2.38;;;19.10;99.90;;;;;;4972306;28;20037;-81
2023/09/29 07:21:36;;;;;;;5.25;2.15;;;19.20;99.90;;;;;;4968379;28;20037;-80
2023/09/29 07:24:09;;;;;;;3.58;2.33;;;19.20;99.90;;;;;;4972277;28;20035;-80
2023/09/29 07:26:34;;;;;;;6.55;2.88;;;19.30;99.90;;;;;;4969287;28;20510;-80
2023/09/29 07:29:01;;;;;;;7.75;2.97;;;19.40;99.90;;;;;;4968396;28;21542;-81
2023/09/29 07:31:36;;;;;;;4.68;2.42;;;19.40;99.90;;;;;;4969412;28;20022;-80
2023/09/29 07:34:02;;;;;;;5.22;2.78;;;19.50;99.90;;;;;;4968784;28;20026;-81
2023/09/29 07:36:30;;;;;;;2.47;2.10;;;19.60;99.90;;;;;;4972892;28;20097;-81
2023/09/29 07:39:02;;;;;;;3.60;2.53;;;19.60;99.90;;;;;;4961665;28;20517;-81
2023/09/29 07:41:27;;;;;;;3.20;2.42;;;19.80;99.90;;;;;;4967206;28;20031;-81
2023/09/29 07:43:53;;;;;;;7.07;2.85;;;19.70;99.90;;;;;;4970630;28;20039;-80
2023/09/29 07:46:19;;;;;;;5.20;2.47;;;19.90;99.90;;;;;;4980386;28;20053;-81
2023/09/29 07:48:44;;;;;;;3.80;2.70;;;20.20;99.90;;;;;;4973636;28;20408;-80
2023/09/29 07:51:10;;;;;;;3.80;2.72;;;20.30;99.90;;;;;;4974228;28;20053;-81
2023/09/29 07:53:35;;;;;;;4.40;2.30;;;20.50;99.90;;;;;;4971259;28;20487;-80
2023/09/29 07:56:01;;;;;;;3.38;2.10;;;20.70;99.90;;;;;;4975769;28;20035;-81
2023/09/29 07:58:26;;;;;;;4.38;2.75;;;20.80;99.90;;;;;;4973892;28;20656;-81
2023/09/29 08:00:52;;;;;;;3.85;2.58;;;20.90;99.90;;;;;;4976321;28;20042;-80
2023/09/29 08:03:18;;;;;;;3.58;2.78;;;20.80;99.90;;;;;;4972243;28;20041;-81
2023/09/29 08:05:43;;;;;;;4.22;2.60;;;20.90;99.90;;;;;;4971016;28;20027;-81
2023/09/29 08:08:09;;;;;;;7.53;2.63;;;21.10;99.90;;;;;;4975673;28;20031;-81
2023/09/29 08:10:35;;;;;;;3.92;2.97;;;21.30;99.90;;;;;;4973223;28;20030;-81
2023/09/29 08:13:00;;;;;;;3.70;2.35;;;21.40;99.90;;;;;;4970730;28;20146;-81
2023/09/29 08:15:26;;;;;;;3.65;2.33;;;21.60;99.90;;;;;;4971179;28;20039;-81
2023/09/29 08:17:51;;;;;;;4.75;2.30;;;21.70;99.90;;;;;;4971501;28;20875;-81
2023/09/29 08:20:18;;;;;;;5.45;2.72;;;21.70;99.90;;;;;;4974388;28;20113;-81
2023/09/29 08:22:44;;;;;;;5.15;2.65;;;21.80;99.90;;;;;;4970456;28;20915;-81
2023/09/29 08:25:10;;;;;;;3.88;2.33;;;22.00;99.90;;;;;;4972408;28;20114;-81
2023/09/29 08:27:36;;;;;;;5.53;2.45;;;22.20;99.90;;;;;;4956665;28;20043;-81
2023/09/29 08:30:03;;;;;;;5.25;2.55;;;22.20;99.90;;;;;;4971216;28;20245;-81
2023/09/29 08:32:29;;;;;;;6.50;2.75;;;22.30;99.90;;;;;;4945777;28;20027;-81
2023/09/29 08:34:55;;;;;;;4.30;2.38;;;22.30;99.90;;;;;;4970838;28;20035;-81
2023/09/29 08:37:21;;;;;;;6.53;3.00;;;22.40;99.90;;;;;;4956874;28;20038;-80
2023/09/29 08:39:46;;;;;;;6.63;2.33;;;22.40;99.90;;;;;;4975050;28;20033;-81
2023/09/29 08:42:37;;;;;;;6.47;2.33;;;22.60;99.90;;;;;;4968815;28;20075;-81
2023/09/29 08:45:09;;;;;;;2.30;1.88;;;22.70;99.90;;;;;;4984045;28;20043;-81
2023/09/29 08:47:35;;;;;;;5.95;2.90;;;22.80;99.90;;;;;;4970827;28;20078;-81
2023/09/29 08:50:01;;;;;;;5.35;2.97;;;22.90;99.90;;;;;;4953691;28;20039;-81
2023/09/29 08:52:28;;;;;;;3.88;2.65;;;22.90;99.90;;;;;;4972048;28;20038;-81
2023/09/29 08:54:55;;;;;;;4.03;2.25;;;23.00;99.90;;;;;;4970299;28;20422;-81
2023/09/29 08:57:20;;;;;;;5.97;2.70;;;23.00;99.90;;;;;;4987701;28;20041;-81
2023/09/29 08:59:46;;;;;;;6.20;2.80;;;23.00;99.90;;;;;;4972705;28;20458;-81
2023/09/29 09:02:12;;;;;;;4.80;2.42;;;22.90;99.90;;;;;;4974404;28;20447;-81
2023/09/29 09:04:37;;;;;;;10.38;2.28;;;22.80;99.90;;;;;;4954055;28;20035;-82
2023/09/29 09:07:03;;;;;;;5.70;2.80;;;22.70;99.90;;;;;;4966651;28;20027;-82
2023/09/29 09:09:29;;;;;;;3.67;2.40;;;22.90;99.90;;;;;;4969510;28;20092;-81
2023/09/29 09:11:55;;;;;;;4.03;2.60;;;22.90;99.90;;;;;;4972267;28;20092;-81
2023/09/29 09:14:21;;;;;;;2.63;2.17;;;22.80;99.90;;;;;;4971690;28;20034;-81
2023/09/29 09:16:46;;;;;;;2.40;1.73;;;22.90;99.90;;;;;;4970878;28;20061;-81
2023/09/29 09:19:15;;;;;;;5.15;2.20;;;23.00;99.90;;;;;;4969742;28;20110;-81
2023/09/29 09:21:42;;;;;;;4.60;2.55;;;23.00;99.90;;;;;;4970312;28;20031;-81
2023/09/29 09:24:18;;;;;;;6.65;2.65;;;23.10;99.90;;;;;;4988751;28;20054;-81
2023/09/29 09:26:46;;;;;;;5.20;2.20;;;23.20;99.90;;;;;;4956412;28;20050;-81
2023/09/29 09:29:15;;;;;;;3.53;1.98;;;23.40;99.90;;;;;;4970764;28;20035;-82
2023/09/29 09:31:45;;;;;;;3.80;2.72;;;23.50;99.60;;;;;;4971525;28;20571;-81
2023/09/29 09:34:12;;;;;;;2.47;2.28;;;23.50;99.90;;;;;;4951379;28;20031;-81
2023/09/29 09:36:52;;;;;;;6.13;2.70;;;23.50;99.50;;;;;;4955951;28;20031;-81
2023/09/29 09:39:23;;;;;;;3.08;2.20;;;23.50;99.50;;;;;;4982449;28;20023;-80
2023/09/29 09:41:53;;;;;;;2.80;2.30;;;23.70;99.50;;;;;;4970926;28;20058;-80
2023/09/29 09:44:20;;;;;;;4.78;2.53;;;23.80;99.10;;;;;;4969883;28;20490;-80
2023/09/29 09:46:49;;;;;;;4.32;2.58;;;23.90;99.00;;;;;;4972207;28;20518;-81
2023/09/29 09:49:15;;;;;;;4.47;2.58;;;24.00;98.70;;;;;;4968969;28;20471;-80
2023/09/29 09:51:44;;;;;;;3.55;2.42;;;23.90;98.40;;;;;;4954146;28;20050;-80
2023/09/29 09:54:10;;;;;;;4.20;1.75;;;23.90;98.60;;;;;;4985126;28;20035;-80
2023/09/29 09:56:45;;;;;;;5.50;3.13;;;24.10;98.30;;;;;;4972973;28;20034;-80
2023/09/29 09:59:13;;;;;;;4.70;2.67;;;24.00;98.50;;;;;;4937083;28;20309;-80
2023/09/29 10:01:40;;;;;;;4.03;2.50;;;24.10;98.20;;;;;;4953179;28;20057;-80
2023/09/29 10:04:06;;;;;;;5.28;2.95;;;24.20;98.50;;;;;;4950366;28;20050;-80
2023/09/29 10:06:33;;;;;;;6.72;2.70;;;24.20;98.90;;;;;;4965215;28;20039;-79
2023/09/29 10:09:07;;;;;;;3.45;2.58;;;24.20;98.90;;;;;;4972188;28;20030;-80
2023/09/29 10:11:34;;;;;;;4.63;2.50;;;24.00;98.20;;;;;;4970056;28;20034;-80
2023/09/29 10:14:03;;;;;;;4.55;2.35;;;24.00;98.30;;;;;;4951234;28;20039;-79
2023/09/29 10:16:29;;;;;;;5.35;2.78;;;23.70;98.80;;;;;;4975001;28;20034;-80
2023/09/29 10:18:59;;;;;;;4.25;2.17;;;23.70;99.20;;;;;;4968653;28;20056;-80
2023/09/29 10:21:25;;;;;;;5.03;2.65;;;23.70;98.40;;;;;;4953278;28;20041;-78
2023/09/29 10:23:51;;;;;;;3.38;2.30;;;23.80;98.80;;;;;;4971771;28;20037;-80
2023/09/29 10:26:17;;;;;;;4.18;2.15;;;23.70;98.40;;;;;;4974935;28;20030;-79
2023/09/29 10:28:45;;;;;;;5.53;2.63;;;23.80;98.10;;;;;;4973430;28;20499;-77
2023/09/29 10:31:15;;;;;;;3.38;1.52;;;23.70;98.10;;;;;;4971641;28;20045;-79
2023/09/29 10:33:52;;;;;;;7.72;2.63;;;23.90;98.00;;;;;;4973472;28;20038;-78
2023/09/29 10:36:23;;;;;;;5.40;2.08;;;23.90;97.30;;;;;;4948830;28;20499;-78
2023/09/29 10:38:49;;;;;;;6.75;2.22;;;23.90;97.60;;;;;;4966649;28;20149;-78
2023/09/29 10:41:15;;;;;;;5.30;1.75;;;24.00;96.90;;;;;;4953773;28;20353;-80
2023/09/29 10:43:47;;;;;;;3.55;1.83;;;24.00;96.80;;;;;;4970013;28;20042;-78
2023/09/29 10:46:15;;;;;;;5.80;2.60;;;23.90;97.00;;;;;;4990170;28;20042;-78
2023/09/29 10:48:48;;;;;;;4.55;1.85;;;24.00;96.80;;;;;;4963566;28;20692;-78
2023/09/29 10:51:43;;;;;;;8.00;2.25;;;23.90;96.90;;;;;;4966024;28;20057;-79
2023/09/29 10:54:09;;;;;;;5.95;2.33;;;23.90;96.70;;;;;;4958821;28;20042;-79
2023/09/29 10:56:36;;;;;;;5.30;3.08;;;24.10;97.00;;;;;;4968995;28;20038;-78
2023/09/29 10:59:05;;;;;;;4.18;1.85;;;24.30;96.70;;;;;;4971585;28;20034;-78
2023/09/29 11:01:36;;;;;;;7.32;2.63;;;24.30;97.10;;;;;;4965562;28;20453;-78
2023/09/29 11:04:07;;;;;;;5.50;2.67;;;24.40;97.10;;;;;;4969063;28;20041;-78
2023/09/29 11:06:53;;;;;;;4.72;2.28;;;24.50;96.60;;;;;;4953831;28;20046;-78
2023/09/29 11:09:21;;;;;;;7.47;2.95;;;24.70;96.10;;;;;;4954202;28;20035;-80
2023/09/29 11:11:47;;;;;;;3.30;1.70;;;24.90;96.00;;;;;;4975626;28;20035;-78
2023/09/29 11:14:12;;;;;;;3.88;1.80;;;24.90;95.70;;;;;;4971309;28;20391;-79
2023/09/29 11:16:38;;;;;;;6.25;2.67;;;24.90;95.50;;;;;;4981743;28;20096;-79
2023/09/29 11:19:11;;;;;;;5.35;2.50;;;24.80;95.40;;;;;;4974689;28;20065;-80
2023/09/29 11:21:36;;;;;;;7.05;3.05;;;24.70;95.50;;;;;;4957634;28;20031;-80
2023/09/29 11:24:05;;;;;;;3.13;1.73;;;24.70;95.70;;;;;;4972151;28;20150;-79
2023/09/29 11:26:32;;;;;;;4.53;2.60;;;24.80;95.90;;;;;;4977681;28;20077;-80
2023/09/29 11:28:58;;;;;;;6.25;2.70;;;24.90;95.70;;;;;;4971968;28;20034;-80
2023/09/29 11:31:24;;;;;;;7.05;2.78;;;24.90;96.20;;;;;;4955789;28;20479;-78
2023/09/29 11:33:50;;;;;;;6.70;2.70;;;24.90;96.00;;;;;;4969821;28;20039;-80
2023/09/29 11:36:21;;;;;;;5.60;2.63;;;25.00;95.90;;;;;;4975239;28;20388;-79
2023/09/29 11:38:47;;;;;;;6.65;2.25;;;25.20;95.90;;;;;;4973138;28;20491;-79
2023/09/29 11:41:13;;;;;;;7.97;3.00;;;25.30;95.30;;;;;;4973938;28;20122;-79
2023/09/29 11:43:42;;;;;;;6.60;2.65;;;25.30;95.40;;;;;;4977284;28;20158;-79
2023/09/29 11:46:08;;;;;;;8.13;2.60;;;25.30;95.20;;;;;;4955119;28;20122;-79
2023/09/29 11:48:33;;;;;;;6.13;2.40;;;25.40;94.60;;;;;;4970196;28;20186;-79
2023/09/29 11:50:59;;;;;;;7.38;3.28;;;25.50;94.70;;;;;;4281441;28;9999979;-80
2023/09/29 11:53:25;;;;;;;5.63;3.00;;;25.60;94.20;;;;;;4969726;28;20026;-80
2023/09/29 11:55:50;;;;;;;5.57;2.85;;;25.70;94.40;;;;;;4970010;28;20034;-80
2023/09/29 11:58:16;;;;;;;11.38;2.80;;;26.00;93.50;;;;;;4969685;28;20126;-80
2023/09/29 12:00:41;;;;;;;7.38;2.85;;;26.20;92.80;;;;;;4968225;28;20050;-80
2023/09/29 12:03:11;;;;;;;8.73;2.72;;;26.30;93.10;;;;;;4970521;28;20403;-79
2023/09/29 12:05:36;;;;;;;11.27;3.63;;;26.10;92.80;;;;;;4968673;28;20403;-80
2023/09/29 12:08:02;;;;;;;3.97;2.40;;;26.10;93.20;;;;;;4969620;28;20027;-80
2023/09/29 12:10:28;;;;;;;8.23;3.65;;;26.20;93.20;;;;;;4954220;28;20039;-80
2023/09/29 12:12:54;;;;;;;8.85;3.63;;;26.10;93.30;;;;;;4967665;28;20116;-80
2023/09/29 12:15:21;;;;;;;5.70;2.72;;;26.10;93.10;;;;;;4971563;28;20395;-80
2023/09/29 12:17:46;;;;;;;7.38;3.72;;;26.10;92.90;;;;;;4969510;28;20038;-79
2023/09/29 12:20:15;;;;;;;9.07;4.03;;;25.90;92.80;;;;;;4968986;28;20526;-80
2023/09/29 12:22:45;;;;;;;8.45;3.63;;;25.90;92.70;;;;;;4969112;28;20038;-79
2023/09/29 12:25:12;;;;;;;7.10;3.70;;;25.80;92.90;;;;;;4969888;28;20039;-80
2023/09/29 12:27:38;;;;;;;8.95;4.00;;;25.90;92.80;;;;;;4970675;28;20039;-80
2023/09/29 12:30:12;;;;;;;11.55;2.80;;;25.80;92.90;;;;;;4968849;28;20062;-80
2023/09/29 12:32:41;;;;;;;9.52;4.03;;;25.80;93.20;;;;;;4971254;28;20102;-79
2023/09/29 12:35:08;;;;;;;12.23;3.15;;;26.00;92.70;;;;;;4969882;28;20034;-79
2023/09/29 12:37:33;;;;;;;9.15;4.10;;;26.10;92.50;;;;;;4968257;28;20086;-80
2023/09/29 12:39:59;;;;;;;6.13;3.65;;;25.90;92.60;;;;;;4981131;28;20047;-80
2023/09/29 12:42:25;;;;;;;13.68;4.28;;;26.00;92.60;;;;;;4975484;28;20030;-79